Terminal Aerodrome Forecast
Issued by NWS Lake Charles, LA

Home | Current Version | Previous Version | Text Only | Print | Product List | Glossary On
Versions: 1 2 3 4 5 6 7 8 9 10 11 12 13 14 15 16
000
FTUS44 KLCH 011100
TAFARA
TAF
KARA 011129Z 0112/0212 11010KT P6SM VCSH OVC007
      TEMPO 0114/0116 4SM -RA BR OVC004
     FM011600 12010KT P6SM VCSH OVC007
      TEMPO 0116/0120 4SM -RA BR OVC004
     FM012000 12010KT P6SM VCSH OVC007
     FM020000 11006KT 4SM BR VCSH OVC004
     FM020600 12004KT 1SM BR VCSH OVC002=

USA.gov is the U.S. government's official web portal to all federal, state and local government web resources and services.